Nearby METAR Reports

 

KALB - Albany, New York, USA
Distance from station: E 47mi, 75km
Updated: Sat, 18-Aug-2018 6:51am EDT
Light rain, Mist, Overcast
Light rain, Mist, Overcast
 Wind from S
Wind: S 7 mph , 11 km/h
Temperature: 73°F , 23°C
Dew Point: 70°F , 21°C
Humidity: 89%
Barometer: 29.84 inHg , 1010.5 hPa
Summary: Light rain, Mist
Clouds: Overcast
Visibility: 2 1/2 miles , 4 km
Cloud details: Mostly cloudy 400 ft
Overcast 9500 ft
2018/08/18 10:51 KALB 181051Z 18006KT 2 1/2SM -RA BR BKN004 OVC095 23/21 A2984 RMK AO2 SFC VIS 3 SLP102 PCPN VRY LGT P0000 T02280211
KSLK - Saranac Lake, New York, USA
Distance from station: N 110mi, 177km
Updated: Sat, 18-Aug-2018 6:51am EDT
Overcast
Overcast
 Wind from varies
Wind: varies 3 mph , 6 km/h
Temperature: 61°F , 16°C
Dew Point: 61°F , 16°C
Humidity: 100%
Barometer: 29.91 inHg , 1012.9 hPa
Clouds: Overcast
Visibility: 10 miles , 16 km
Cloud details: Overcast 400 ft
2018/08/18 10:51 KSLK 181051Z AUTO VRB03KT 10SM OVC004 16/16 A2991 RMK AO2 SLP123 T01560156 $
 
KSYR - Syracuse, New York, USA
Distance from station: W 73mi, 117km
Updated: Sat, 18-Aug-2018 6:54am EDT
Light rain, Overcast
Light rain, Overcast
 Wind from NNW
Wind: NNW 8 mph , 13 km/h
Temperature: 64°F , 18°C
Dew Point: 64°F , 18°C
Humidity: 100%
Barometer: 29.89 inHg , 1012.2 hPa
Summary: Light rain
Clouds: Overcast
Visibility: 10 miles , 16 km
Cloud details: Partly cloudy 700 ft
Mostly cloudy 2800 ft
Overcast 12000 ft
2018/08/18 10:54 KSYR 181054Z 34007KT 10SM -RA SCT007 BKN028 OVC120 18/18 A2989 RMK AO2 RAB47 SLP116 P0000 T01830183 $
KBGM - Binghamton, New York, USA
Distance from station: SW 78mi, 126km
Updated: Sat, 18-Aug-2018 6:53am EDT
Mist, Overcast
Mist, Overcast
 Wind from SW
Wind: SW 5 mph , 7 km/h
Temperature: 70°F , 21°C
Dew Point: 68°F , 20°C
Humidity: 94%
Barometer: 29.91 inHg , 1012.9 hPa
Summary: Mist
Clouds: Overcast
Visibility: 1 1/2 miles , 2.4 km
Cloud details: Partly cloudy 200 ft
Mostly cloudy 2100 ft
Overcast 3900 ft
2018/08/18 10:53 KBGM 181053Z 23004KT 1 1/2SM BR SCT002 BKN021 OVC039 21/20 A2991 RMK AO2 SFC VIS 3 SLP117 T02060200
 
KRME - Rome, New York, USA
Distance from station: WNW 43mi, 69km
Updated: Sat, 18-Aug-2018 6:53am EDT
Overcast
Overcast
 Wind from N
Wind: N 8 mph , 13 km/h
Temperature: 66°F , 19°C
Dew Point: 66°F , 19°C
Humidity: 100%
Barometer: 29.89 inHg , 1012.2 hPa
Clouds: Overcast
Visibility: 10 miles , 16 km
Cloud details: Mostly cloudy 3800 ft
Mostly cloudy 4900 ft
Overcast 8500 ft
2018/08/18 10:53 KRME 181053Z 01007KT 10SM BKN038 BKN049 OVC085 19/19 A2989 RMK AO2 RAE0956B34E45 SLP118 P0000 T01940189
KJFK - New York, New York, USA
Distance from station: SSE 159mi, 256km
Updated: Sat, 18-Aug-2018 6:51am EDT
Mostly cloudy
Mostly cloudy
 Wind from WSW
Wind: WSW 12 mph , 19 km/h
Temperature: 75°F , 24°C
Dew Point: 75°F , 24°C
Humidity: 100%
Barometer: 29.87 inHg , 1011.5 hPa
Clouds: Mostly cloudy
Visibility: 10 miles , 16 km
Cloud details: Few Clouds 1000 ft
Few Clouds 4800 ft
Mostly cloudy 14000 ft
Mostly cloudy 23000 ft
2018/08/18 10:51 KJFK 181051Z 25010KT 10SM FEW010 FEW048 BKN140 BKN230 24/24 A2987 RMK AO2 SLP114 VCSH N T02440239
 
KROC - Rochester, New York, USA
Distance from station: W 150mi, 242km
Updated: Sat, 18-Aug-2018 6:54am EDT
Light rain, Overcast
Light rain, Overcast
 Wind from NNE
Wind: NNE 9 mph , 15 km/h
Temperature: 68°F , 20°C
Dew Point: 66°F , 19°C
Humidity: 94%
Barometer: 29.92 inHg , 1013.2 hPa
Summary: Light rain
Clouds: Overcast
Visibility: 10 miles , 16 km
Cloud details: Partly cloudy 700 ft
Mostly cloudy 1300 ft
Overcast 6500 ft
2018/08/18 10:54 KROC 181054Z 02008KT 10SM -RA SCT007 BKN013 OVC065 20/19 A2992 RMK AO2 SLP130 P0001 T02000194
KART - Watertown, New York, USA
Distance from station: NNW 103mi, 166km
Updated: Sat, 18-Aug-2018 6:56am EDT
Mist, Overcast
Mist, Overcast
 Wind from N
Wind: N 7 mph , 11 km/h
Temperature: 63°F , 17°C
Dew Point: 63°F , 17°C
Humidity: 100%
Barometer: 29.91 inHg , 1012.9 hPa
Summary: Mist
Clouds: Overcast
Visibility: 5 miles , 8 km
Cloud details: Overcast 800 ft
2018/08/18 10:56 KART 181056Z AUTO 01006KT 5SM BR OVC008 17/17 A2991 RMK AO2 CIG 006V011 SLP125 T01720167
 
KELM - Elmira-Corning, New York, USA
Distance from station: SSW 121mi, 195km
Updated: Sat, 18-Aug-2018 6:53am EDT
Light rain, Overcast
Light rain, Overcast
 Wind from calm
Wind: Calm
Temperature: 72°F , 22°C
Dew Point: 70°F , 21°C
Humidity: 94%
Barometer: 29.88 inHg , 1011.9 hPa
Summary: Light rain
Clouds: Overcast
Visibility: 7 miles , 11 km
Cloud details: Partly cloudy 1600 ft
Mostly cloudy 3400 ft
Overcast 4200 ft
2018/08/18 10:53 KELM 181053Z 00000KT 7SM -RA SCT016 BKN034 OVC042 22/21 A2988 RMK AO2 RAE06B46 SLP111 P0000 T02170206
KJHW - Jamestown, New York, USA
Distance from station: SW 238mi, 383km
Updated: Sat, 18-Aug-2018 6:56am EDT
Rain, Overcast
Rain, Overcast
 Wind from WSW
Wind: WSW 8 mph , 13 km/h
Temperature: 68°F , 20°C
Dew Point: 66°F , 19°C
Humidity: 94%
Barometer: 29.93 inHg , 1013.5 hPa
Summary: Rain
Clouds: Overcast
Visibility: 10 miles , 16 km
Cloud details: Mostly cloudy 800 ft
Overcast 1300 ft
2018/08/18 10:56 KJHW 181056Z AUTO 25007KT 10SM RA BKN008 OVC013 20/19 A2993 RMK AO2 LTG DSNT NE CIG 004V011 SLP128 P0001 T02000194
 
KMSS - Massena, New York, USA
Distance from station: N 141mi, 232km
Updated: Sat, 18-Aug-2018 6:53am EDT
Overcast
Overcast
 Wind from N
Wind: N 7 mph , 11 km/h
Temperature: 64°F , 18°C
Dew Point: 61°F , 16°C
Humidity: 88%
Barometer: 29.93 inHg , 1013.5 hPa
Clouds: Overcast
Visibility: 10 miles , 16 km
Cloud details: Overcast 2000 ft
2018/08/18 10:53 KMSS 181053Z AUTO 35006KT 10SM OVC020 18/16 A2993 RMK AO2 SLP134 T01780156
KBUF - Buffalo, New York, USA
Distance from station: W 204mi, 328km
Updated: Sat, 18-Aug-2018 6:54am EDT
Light rain, Overcast
Light rain, Overcast
 Wind from ENE
Wind: ENE 9 mph , 15 km/h
Temperature: 64°F , 18°C
Dew Point: 64°F , 18°C
Humidity: 100%
Barometer: 29.92 inHg , 1013.2 hPa
Summary: Light rain
Clouds: Overcast
Visibility: 9 miles , 14 km
Cloud details: Partly cloudy 5500 ft
Partly cloudy 7500 ft
Mostly cloudy 10000 ft
Overcast 13000 ft
2018/08/18 10:54 KBUF 181054Z 06008KT 9SM -RA SCT055 SCT075 BKN100 OVC130 18/18 A2992 RMK AO2 SLP127 P0006 T01780178